AirNav   Air Wisconsin Up To $57,000 Bonus
 
 1324 users online  

1A3 Martin Campbell Field Airport
Copperhill, Tennessee, USA

GOING TO COPPERHILL?


FAA INFORMATION EFFECTIVE 26 JANUARY 2023

Location

FAA Identifier: 1A3
Lat/Long: 35-00-56.9380N 084-20-48.5920W
35-00.948967N 084-20.809867W
35.0158161,-84.3468311
(estimated)
Elevation: 1789 ft. / 545.3 m (surveyed)
Variation: 05W (2010)
From city: 3 miles NE of COPPERHILL, TN
Time zone: UTC -5 (UTC -4 during Daylight Saving Time)
Zip code: 37317

Airport Operations

Airport use: Open to the public
Activation date: 12/1946
Control tower: no
ARTCC: ATLANTA CENTER
FSS: NASHVILLE FLIGHT SERVICE STATION
NOTAMs facility: BNA (NOTAM-D service available)
Attendance: IRREG
Wind indicator: lighted
Segmented circle: yes
Lights: ACTVT NON STANDARD LIRL RWY 02/20 - CTAF.
Beacon: white-green (lighted land airport)
Operates sunset to sunrise.

Airport Communications

CTAF: 122.9
WX AWOS-3PT at DZJ (20 nm SE): 119.325 (706-745-9271)
  • APCH/DEP SVC PRVDD BY ATLANTA ARTCC ON FREQS 133.1/342.425 (MOUNT OGLETHORPE RCAG).

Nearby radio navigation aids

VOR radial/distance  VOR name  Freq  Var
HRSr282/21.6HARRIS VORTAC109.8000E
GQOr084/39.8CHOO CHOO VORTAC115.8001E

Airport Services

Fuel available: 100LL
100LL:FUEL 24 HR CREDIT CARD SVC AVBL.
Parking: hangars and tiedowns
Airframe service: MINOR
Powerplant service: MINOR

Runway Information

Runway 2/20

Dimensions: 3500 x 75 ft. / 1067 x 23 m
Surface: asphalt, in fair condition
Weight bearing capacity: 
Single wheel: 30.0
Double wheel: 45.0
Runway edge lights: non-standard
RUNWAY 2  RUNWAY 20
Latitude: 35-00.669102N35-01.228847N
Longitude: 084-20.894637W084-20.725083W
Elevation: 1771.7 ft.1788.7 ft.
Traffic pattern: leftright
Runway heading: 019 magnetic, 014 true199 magnetic, 194 true
Displaced threshold: 90 ft.140 ft.
Declared distances: TORA:3500 TODA:3500 ASDA:3360 LDA:3270TORA:3270 TODA:3500 ASDA:3410 LDA:3270
Markings: nonprecision, in fair conditionnonprecision, in fair condition
Visual slope indicator: 2-light PAPI on left (3.00 degrees glide path)2-light PAPI on left (4.00 degrees glide path)
Runway end identifier lights: nono
Touchdown point: yes, no lightsyes, no lights

Airport Ownership and Management from official FAA records

Ownership: Publicly-owned
Owner: POLK COUNTY
COUNTY COURTHOUSE
BENTON, TN 37307
Phone 423-338-4527
Manager: ALAN FROSCH
971 AIRPORT ROAD
COPPERHILL, TN 37317
Phone 423-496-9465

Airport Operational Statistics

Aircraft based on the field: 23
Single engine airplanes: 19
Multi engine airplanes: 2
Helicopters: 1
Gliders airplanes: 1
    
Aircraft operations: avg 73/week *
59% local general aviation
39% transient general aviation
1% air taxi
<1% military
* for 12-month period ending 26 April 2022

Additional Remarks

A52-20 8400 FT MTN RIDGES IN APCH; 5000 FT MTN RIDGE ALONG E SIDE OF RWY.
A57-20 APCH RATIO 19:1 TO DTHR.
A57-02 APCH RATIO 17:1 TO DTHR.
WILDLIFE INVOF RWY.
FOR CD CTC ATLANTA ARTCC AT 770-210-7692.

Instrument Procedures

NOTE: All procedures below are presented as PDF files. If you need a reader for these files, you should download the free Adobe Reader.

NOT FOR NAVIGATION. Please procure official charts for flight.
FAA instrument procedures published for use from 26 January 2023 at 0901Z to 23 February 2023 at 0900z.

 
IAPs - Instrument Approach Procedures
RNAV (GPS) RWY 02   download
RNAV (GPS) RWY 20   download
NOTE: Special Take-Off Minimums/Departure Procedures apply   download (373KB)

Other nearby airports with instrument procedures:

KDZJ - Blairsville Airport (20 nm SE)
49A - Gilmer County Airport (25 nm S)
KRZR - Cleveland Regional Jetport (25 nm NW)
KMMI - McMinn County Airport (25 nm NW)
KRHP - Western Carolina Regional Airport (26 nm NE)
 
Loc | Ops | Rwys | IFR | FBO | Links
Com | Nav | Svcs | Stats | Notes
Area around 1A3 (Martin Campbell Field Airport)
 
Road maps at: MapQuest Bing Google
 
Aerial photo
WARNING: Photo may not be current or correct
Aerial photo of 1A3 (Martin Campbell Field Airport)
Photo by Alan Frosch
Taken in the Spring of 2016
looking north.

Do you have a better or more recent aerial photo of Martin Campbell Field Airport that you would like to share? If so, please send us your photo.

 
Sectional chart

 
Airport distance calculator
Flying to Martin Campbell Field Airport? Find the distance to fly.

From to 1A3

Sunrise and sunset
Times for 08-Feb-2023
 Local
(UTC-5)
 Zulu
(UTC)
Morning civil twilight07:0512:05
Sunrise07:3112:31
Sunset18:1223:12
Evening civil twilight18:3823:38

Current date and time
Zulu (UTC)  09-Feb-2023 00:00:43
Local (UTC-5)  08-Feb-2023 19:00:43
 
METAR
KDZJ 
20nm SE 
082335Z AUTO 08007KT 10SM OVC085 15/10 A3024 RMK AO2 T01510102
K49A 
25nm S 
082335Z AUTO VRB04KT 10SM BKN095 17/11 A3021 RMK AO2
KMMI 
25nm NW 
082335Z AUTO 05005KT 10SM FEW046 BKN100 13/12 A3020 RMK A01
KRHP 
26nm NE 
082355Z AUTO 00000KT 10SM BKN090 12/11 A3024 RMK AO2 T01190106 10161 20096
KMNV 
32nm N 
082335Z AUTO 00000KT 10SM BKN046 BKN100 13/12 A3019 RMK A01
KJZP 
34nm S 
082335Z AUTO 17007KT 10SM SCT095 17/11 A3024 RMK AO2 T01650105
TAF
KCHA 
42nm W 
082046Z 0821/0918 VRB05KT P6SM SCT025 BKN040 TEMPO 0821/0823 BKN025 FM082300 16007KT P6SM BKN035 FM090300 16010G18KT 6SM BR BKN050 PROB30 0906/0908 4SM -SHRA BR OVC015 FM090800 17015G23KT P6SM BKN035 FM091200 18015G25KT P6SM -SHRA BKN030 FM091500 19015G25KT P6SM -SHRA OVC020
NOTAMs
Click for the latest NOTAMs
NOTAMs are issued by the DoD/FAA and will open in a separate window not controlled by AirNav.

 

 
 

FBO, Fuel Providers, and Aircraft Ground Support

  
 Business Name 
 
 Contact 
 
 Services / Description 
 
Fuel Prices
 
Comments
  
Whitewater Aviation Corporation 423-496-9465
423-218-7681
[web site]
[email]
Airport management, Aviation fuel, Aircraft parking (ramp or tiedown), Hangars, Hangar leasing / sales, Aircraft maintenance, Rental cars on site, ...

More info about Whitewater Aviation Corporation
Titan
100LL
SS $5.79 
 Updated 02-Feb-2023
 
   12 read write
SS=Self service
Update Fuel Prices
 

Would you like to see your business listed on this page?

 If your business provides an interesting product or service to pilots, flight crews, aircraft, or users of the Martin Campbell Field Airport, you should consider listing it here.  To start the listing process, click on the button below
 
Add a business
 

Other Pages about Martin Campbell Field Airport

Update a link
 
Copyright © AirNav, LLC. All rights reserved. Privacy Policy  Contact